createdAt,value
2018-02-27T00:01:47.723Z,7.07
2018-02-27T00:04:15.243Z,6.77
2018-02-27T00:06:42.763Z,7.07
2018-02-27T00:09:10.278Z,6.47
2018-02-27T00:11:37.802Z,6.90
2018-02-27T00:14:05.323Z,7.27
2018-02-27T00:16:32.845Z,6.57
2018-02-27T00:19:00.378Z,6.00
2018-02-27T00:21:27.925Z,6.80
2018-02-27T00:23:55.453Z,6.13
2018-02-27T00:26:23.774Z,7.63
2018-02-27T00:28:51.288Z,7.77
2018-02-27T00:31:18.821Z,7.40
2018-02-27T00:33:46.343Z,6.63
2018-02-27T00:36:13.864Z,6.73
2018-02-27T00:38:41.386Z,7.77
2018-02-27T00:41:08.908Z,7.07
2018-02-27T00:43:36.428Z,6.80
2018-02-27T00:46:03.946Z,7.30
2018-02-27T00:48:31.477Z,6.87
2018-02-27T00:50:58.992Z,7.30
2018-02-27T00:53:26.503Z,6.73
2018-02-27T00:55:54.031Z,7.23
2018-02-27T00:58:21.572Z,7.33
2018-02-27T01:00:49.106Z,7.20
2018-02-27T01:03:16.624Z,7.13
2018-02-27T01:05:44.132Z,7.43
2018-02-27T01:08:11.648Z,7.00
2018-02-27T01:10:39.161Z,7.83
2018-02-27T01:13:06.681Z,6.77
2018-02-27T01:15:34.215Z,7.13
2018-02-27T01:18:01.741Z,7.03
2018-02-27T01:20:29.271Z,6.57
2018-02-27T01:22:56.801Z,7.57
2018-02-27T01:25:24.323Z,7.53
2018-02-27T01:27:51.850Z,7.63
2018-02-27T01:30:19.378Z,8.07
2018-02-27T01:32:46.908Z,7.67
2018-02-27T01:35:14.435Z,7.43
2018-02-27T01:37:41.950Z,8.67
2018-02-27T01:40:09.474Z,7.97
2018-02-27T01:42:37.002Z,8.20
2018-02-27T01:45:04.527Z,7.97
2018-02-27T01:47:32.054Z,8.10
2018-02-27T01:49:59.569Z,7.97
2018-02-27T01:52:27.101Z,8.20
2018-02-27T01:54:54.628Z,8.10
2018-02-27T01:57:22.173Z,8.63
2018-02-27T01:59:49.704Z,8.40
2018-02-27T02:02:17.217Z,9.30
2018-02-27T02:04:44.736Z,8.23
2018-02-27T02:07:12.256Z,9.20
2018-02-27T02:09:39.780Z,8.63
2018-02-27T02:12:07.331Z,8.83
2018-02-27T02:14:34.873Z,7.87
2018-02-27T02:17:02.393Z,9.17
2018-02-27T02:19:29.924Z,9.03
2018-02-27T02:21:57.449Z,9.43
2018-02-27T02:24:24.988Z,8.67
2018-02-27T02:26:52.502Z,8.87
2018-02-27T02:29:20.019Z,8.93
2018-02-27T02:31:47.540Z,9.23
2018-02-27T02:34:15.066Z,10.50
2018-02-27T02:36:42.626Z,9.27
2018-02-27T02:39:10.150Z,8.83
2018-02-27T02:41:37.675Z,9.90
2018-02-27T02:44:05.206Z,9.83
2018-02-27T02:46:32.738Z,9.67
2018-02-27T02:49:00.256Z,9.20
2018-02-27T02:51:27.774Z,9.50
2018-02-27T02:53:55.289Z,8.67
2018-02-27T02:56:22.800Z,8.97
2018-02-27T02:58:50.339Z,9.23
2018-02-27T03:01:17.867Z,8.60
2018-02-27T03:03:45.389Z,9.03
2018-02-27T03:06:12.913Z,8.77
2018-02-27T03:08:40.445Z,8.23
2018-02-27T03:11:07.970Z,8.93
2018-02-27T03:13:35.503Z,8.80
2018-02-27T03:16:03.025Z,7.97
2018-02-27T03:18:30.540Z,9.10
2018-02-27T03:20:58.070Z,8.90
2018-02-27T03:23:25.599Z,8.80
2018-02-27T03:25:53.126Z,8.23
2018-02-27T03:28:20.643Z,10.23
2018-02-27T03:30:48.179Z,9.33
2018-02-27T03:33:15.684Z,8.93
2018-02-27T03:35:43.218Z,8.60
2018-02-27T03:38:10.730Z,8.43
2018-02-27T03:40:38.253Z,8.53
2018-02-27T03:43:05.771Z,9.10
2018-02-27T03:45:33.285Z,8.37
2018-02-27T03:48:00.802Z,8.80
2018-02-27T03:50:28.313Z,8.80
2018-02-27T03:52:55.841Z,8.30
2018-02-27T03:55:23.374Z,9.07
2018-02-27T03:57:50.923Z,8.17
2018-02-27T04:00:18.444Z,8.43
2018-02-27T04:02:45.976Z,8.97
2018-02-27T04:05:13.491Z,7.93
2018-02-27T04:07:41.024Z,8.23
2018-02-27T04:10:08.551Z,8.20
2018-02-27T04:12:36.082Z,8.77
2018-02-27T04:15:03.637Z,8.40
2018-02-27T04:17:31.161Z,8.50
2018-02-27T04:19:58.676Z,7.90
2018-02-27T04:22:26.192Z,8.60
2018-02-27T04:24:53.705Z,9.17
2018-02-27T04:27:21.224Z,8.23
2018-02-27T04:29:48.754Z,8.07
2018-02-27T04:32:16.285Z,8.53
2018-02-27T04:34:43.805Z,7.97
2018-02-27T04:37:11.378Z,8.27
2018-02-27T04:39:38.907Z,8.57
2018-02-27T04:42:06.429Z,8.43
2018-02-27T04:44:33.943Z,8.20
2018-02-27T04:47:02.374Z,8.17
2018-02-27T04:49:29.897Z,8.33
2018-02-27T04:51:57.425Z,8.63
2018-02-27T04:54:24.954Z,8.70
2018-02-27T04:56:52.466Z,8.47
2018-02-27T04:59:19.987Z,9.03
2018-02-27T05:01:47.511Z,7.90
2018-02-27T05:04:15.017Z,7.87
2018-02-27T05:06:42.556Z,8.23
2018-02-27T05:09:10.090Z,7.90
2018-02-27T05:11:37.628Z,7.67
2018-02-27T05:14:05.141Z,7.10
2018-02-27T05:16:32.659Z,7.53
2018-02-27T05:19:00.186Z,8.47
2018-02-27T05:21:27.700Z,7.43
2018-02-27T05:23:55.211Z,8.17
2018-02-27T05:26:22.732Z,8.43
2018-02-27T05:28:50.257Z,8.80
2018-02-27T05:31:17.833Z,7.67
2018-02-27T05:33:45.347Z,9.23
2018-02-27T05:36:12.862Z,8.77
2018-02-27T05:38:40.390Z,9.60
2018-02-27T05:41:07.905Z,9.10
2018-02-27T05:43:35.437Z,9.13
2018-02-27T05:46:02.961Z,9.70
2018-02-27T05:48:30.480Z,8.27
2018-02-27T05:50:58.005Z,9.17
2018-02-27T05:53:25.520Z,9.43
2018-02-27T05:55:53.050Z,8.77
2018-02-27T05:58:20.584Z,10.47
2018-02-27T06:00:48.111Z,9.27
2018-02-27T06:03:15.629Z,9.47
2018-02-27T06:05:43.151Z,9.83
2018-02-27T06:08:10.673Z,9.50
2018-02-27T06:10:38.201Z,10.00
2018-02-27T06:13:05.790Z,10.63
2018-02-27T06:15:33.269Z,10.43
2018-02-27T06:18:00.781Z,9.27
2018-02-27T06:20:28.309Z,9.50
2018-02-27T06:22:55.829Z,9.40
2018-02-27T06:25:23.344Z,9.20
2018-02-27T06:27:50.866Z,9.77
2018-02-27T06:30:18.397Z,10.00
2018-02-27T06:32:45.918Z,9.43
2018-02-27T06:35:13.449Z,10.77
2018-02-27T06:37:40.973Z,10.40
2018-02-27T06:40:08.489Z,9.87
2018-02-27T06:42:36.032Z,9.43
2018-02-27T06:45:03.552Z,10.33
2018-02-27T06:47:31.080Z,10.33
2018-02-27T06:49:58.635Z,10.07
2018-02-27T06:52:26.160Z,9.63
2018-02-27T06:54:53.706Z,9.90
2018-02-27T06:57:21.241Z,10.00
2018-02-27T06:59:48.769Z,10.20
2018-02-27T07:02:16.335Z,10.33
2018-02-27T07:04:43.824Z,9.73
2018-02-27T07:07:11.341Z,9.90
2018-02-27T07:09:38.870Z,9.03
2018-02-27T07:12:06.403Z,8.97
2018-02-27T07:14:33.925Z,9.47
2018-02-27T07:17:01.448Z,9.90
2018-02-27T07:19:28.977Z,9.37
2018-02-27T07:21:56.501Z,9.87
2018-02-27T07:24:24.035Z,9.63
2018-02-27T07:26:51.554Z,9.43
2018-02-27T07:29:19.075Z,10.23
2018-02-27T07:31:46.602Z,9.90
2018-02-27T07:34:14.138Z,10.23
2018-02-27T07:36:41.656Z,9.10
2018-02-27T07:39:09.170Z,9.50
2018-02-27T07:41:36.722Z,10.30
2018-02-27T07:44:04.246Z,9.80
2018-02-27T07:46:31.798Z,9.63
2018-02-27T07:48:59.325Z,9.83
2018-02-27T07:51:26.849Z,11.53
2018-02-27T07:53:54.373Z,10.30
2018-02-27T07:56:21.930Z,9.90
2018-02-27T07:58:49.462Z,9.37
2018-02-27T08:01:17.002Z,9.40
2018-02-27T08:03:44.520Z,9.53
2018-02-27T08:06:12.067Z,10.47
2018-02-27T08:08:39.600Z,9.23
2018-02-27T08:11:07.127Z,8.63
2018-02-27T08:13:34.641Z,8.50
2018-02-27T08:16:02.175Z,7.83
2018-02-27T08:18:29.705Z,7.03
2018-02-27T08:20:57.221Z,7.57
2018-02-27T08:23:24.752Z,8.07
2018-02-27T08:25:52.269Z,8.33
2018-02-27T08:28:19.807Z,7.50
2018-02-27T08:30:47.325Z,7.70
2018-02-27T08:33:14.843Z,8.70
2018-02-27T08:35:42.361Z,7.57
2018-02-27T08:38:09.887Z,7.47
2018-02-27T08:40:37.398Z,6.90
2018-02-27T08:43:04.926Z,7.77
2018-02-27T08:45:32.448Z,7.47
2018-02-27T08:47:59.973Z,6.90
2018-02-27T08:50:27.544Z,6.63
2018-02-27T08:52:55.037Z,6.80
2018-02-27T08:55:22.564Z,6.20
2018-02-27T08:57:50.084Z,7.47
2018-02-27T09:00:17.611Z,6.90
2018-02-27T09:02:45.130Z,6.40
2018-02-27T09:05:12.652Z,6.63
2018-02-27T09:07:40.170Z,7.40
2018-02-27T09:10:07.699Z,6.53
2018-02-27T09:12:35.230Z,6.33
2018-02-27T09:15:02.771Z,6.43
2018-02-27T09:17:30.276Z,5.83
2018-02-27T09:19:57.807Z,6.53
2018-02-27T09:22:25.329Z,5.97
2018-02-27T09:24:52.849Z,6.50
2018-02-27T09:27:20.394Z,6.30
2018-02-27T09:29:47.908Z,6.20
2018-02-27T09:32:15.496Z,5.93
2018-02-27T09:34:43.015Z,6.40
2018-02-27T09:37:10.529Z,6.60
2018-02-27T09:39:38.045Z,6.17
2018-02-27T09:42:05.599Z,5.80
2018-02-27T09:44:33.121Z,6.10
2018-02-27T09:47:00.634Z,7.20
2018-02-27T09:49:28.162Z,6.80
2018-02-27T09:51:55.672Z,6.80
2018-02-27T09:54:23.182Z,7.53
2018-02-27T09:56:50.694Z,6.87
2018-02-27T09:59:18.212Z,6.73
2018-02-27T10:01:45.745Z,6.27
2018-02-27T10:04:13.265Z,6.93
2018-02-27T10:06:40.791Z,7.00
2018-02-27T10:09:08.309Z,6.70
2018-02-27T10:11:35.829Z,7.00
2018-02-27T10:14:03.355Z,7.63
2018-02-27T10:16:30.862Z,7.63
2018-02-27T10:18:58.379Z,7.27
2018-02-27T10:21:25.891Z,6.63
2018-02-27T10:23:53.421Z,6.03
2018-02-27T10:26:20.937Z,6.17
2018-02-27T10:28:48.470Z,6.57
2018-02-27T10:31:15.996Z,6.43
2018-02-27T10:33:43.526Z,7.50
2018-02-27T10:36:11.041Z,7.20
2018-02-27T10:38:38.570Z,7.37
2018-02-27T10:41:06.109Z,7.10
2018-02-27T10:43:33.628Z,6.90
2018-02-27T10:46:01.137Z,6.30
2018-02-27T10:48:28.652Z,6.40
2018-02-27T10:50:56.202Z,7.13
2018-02-27T10:53:23.736Z,7.63
2018-02-27T10:55:51.266Z,7.50
2018-02-27T10:58:18.806Z,7.30
2018-02-27T11:00:51.357Z,5.00
2018-02-27T11:03:18.891Z,5.13
2018-02-27T11:05:46.442Z,4.77
2018-02-27T11:08:14.042Z,4.80
2018-02-27T11:10:41.630Z,4.30
2018-02-27T11:13:09.154Z,4.27
2018-02-27T11:15:36.677Z,3.70
2018-02-27T11:18:04.205Z,3.90
2018-02-27T11:20:31.735Z,4.50
2018-02-27T11:22:59.263Z,3.90
2018-02-27T11:25:26.787Z,3.43
2018-02-27T11:27:54.308Z,3.53
2018-02-27T11:30:21.839Z,4.13
2018-02-27T11:32:49.367Z,4.57
2018-02-27T11:35:16.907Z,3.50
2018-02-27T11:37:44.416Z,3.73
2018-02-27T11:40:12.008Z,4.40
2018-02-27T11:42:39.549Z,4.03
2018-02-27T11:45:07.077Z,3.30
2018-02-27T11:47:34.618Z,3.10
2018-02-27T11:50:02.148Z,2.80
2018-02-27T11:52:29.704Z,2.57
2018-02-27T11:54:57.271Z,3.40
2018-02-27T11:57:24.808Z,4.00
2018-02-27T11:59:52.320Z,4.10
2018-02-27T12:02:19.879Z,3.43
2018-02-27T12:04:47.370Z,3.30
2018-02-27T12:07:14.921Z,3.73
2018-02-27T12:09:42.451Z,4.00
2018-02-27T12:12:09.980Z,4.07
2018-02-27T12:14:37.525Z,4.70
2018-02-27T12:17:05.049Z,4.70
2018-02-27T12:19:32.576Z,4.30
2018-02-27T12:22:00.116Z,4.50
2018-02-27T12:24:28.256Z,5.03
2018-02-27T12:26:55.785Z,4.90
2018-02-27T12:29:23.292Z,4.53
2018-02-27T12:31:50.830Z,5.07
2018-02-27T12:34:18.373Z,5.40
2018-02-27T12:36:45.901Z,4.23
2018-02-27T12:39:13.415Z,4.30
2018-02-27T12:41:40.941Z,4.43
2018-02-27T12:44:08.448Z,4.90
2018-02-27T12:46:35.973Z,4.40
2018-02-27T12:49:03.510Z,4.53
2018-02-27T12:51:31.101Z,4.33
2018-02-27T12:53:58.639Z,4.37
2018-02-27T12:56:26.160Z,3.83
2018-02-27T12:58:53.683Z,3.77
2018-02-27T13:01:21.203Z,3.97
2018-02-27T13:03:48.730Z,4.00
2018-02-27T13:06:16.286Z,4.43
2018-02-27T13:08:43.867Z,3.80
2018-02-27T13:11:11.403Z,4.93
2018-02-27T13:13:38.938Z,3.93
2018-02-27T13:16:06.461Z,4.50
2018-02-27T13:18:33.981Z,4.33
2018-02-27T13:21:01.506Z,4.70
2018-02-27T13:23:29.042Z,4.43
2018-02-27T13:25:56.631Z,3.80
2018-02-27T13:28:24.165Z,4.17
2018-02-27T13:30:51.716Z,3.80
2018-02-27T13:33:19.245Z,4.53
2018-02-27T13:35:46.768Z,4.30
2018-02-27T13:38:14.301Z,4.20
2018-02-27T13:40:41.820Z,4.37
2018-02-27T13:43:09.382Z,4.90
2018-02-27T13:45:36.967Z,4.63
2018-02-27T13:48:04.491Z,4.87
2018-02-27T13:50:32.025Z,5.07
2018-02-27T13:52:59.561Z,4.67
2018-02-27T13:55:27.117Z,5.23
2018-02-27T13:57:54.758Z,5.00
2018-02-27T14:00:22.286Z,6.00
2018-02-27T14:02:49.868Z,5.67
2018-02-27T14:05:17.387Z,5.33
2018-02-27T14:07:44.954Z,6.20
2018-02-27T14:10:12.472Z,5.87
2018-02-27T14:12:40.019Z,5.40
2018-02-27T14:15:07.539Z,4.97
2018-02-27T14:17:35.052Z,5.47
2018-02-27T14:20:02.573Z,5.40
2018-02-27T14:22:30.090Z,6.30
2018-02-27T14:24:57.614Z,5.37
2018-02-27T14:27:25.135Z,5.17
2018-02-27T14:29:52.650Z,5.30
2018-02-27T14:32:20.166Z,5.03
2018-02-27T14:34:47.680Z,5.20
2018-02-27T14:37:15.205Z,5.50
2018-02-27T14:39:42.745Z,5.20
2018-02-27T14:42:10.277Z,5.03
2018-02-27T14:44:37.798Z,5.23
2018-02-27T14:47:05.313Z,5.43
2018-02-27T14:49:32.831Z,6.40
2018-02-27T14:52:00.359Z,5.80
2018-02-27T14:54:27.885Z,5.43
2018-02-27T14:56:55.408Z,5.93
2018-02-27T14:59:22.932Z,5.17
2018-02-27T15:01:50.476Z,7.53
2018-02-27T15:04:18.002Z,6.30
2018-02-27T15:06:45.529Z,6.77
2018-02-27T15:09:13.071Z,7.00
2018-02-27T15:11:40.604Z,6.87
2018-02-27T15:14:08.125Z,6.23
2018-02-27T15:16:35.681Z,6.30
2018-02-27T15:19:03.211Z,6.53
2018-02-27T15:21:30.728Z,6.50
2018-02-27T15:23:58.270Z,7.03
2018-02-27T15:26:25.803Z,7.07
2018-02-27T15:28:53.325Z,6.03
2018-02-27T15:31:20.853Z,6.93
2018-02-27T15:33:48.407Z,6.73
2018-02-27T15:36:15.926Z,6.60
2018-02-27T15:38:43.464Z,7.63
2018-02-27T15:41:10.992Z,6.17
2018-02-27T15:43:38.517Z,6.60
2018-02-27T15:46:06.034Z,6.37
2018-02-27T15:48:33.562Z,6.17
2018-02-27T15:51:01.096Z,6.47
2018-02-27T15:53:28.639Z,5.93
2018-02-27T15:55:56.167Z,6.10
2018-02-27T15:58:23.699Z,6.20
2018-02-27T16:00:51.348Z,6.67
2018-02-27T16:03:18.871Z,6.60
2018-02-27T16:05:46.408Z,4.23
2018-02-27T16:08:13.931Z,7.27
2018-02-27T16:10:41.462Z,8.37
2018-02-27T16:13:08.984Z,7.50
2018-02-27T16:15:36.505Z,8.07
2018-02-27T16:18:04.012Z,4.37
2018-02-27T16:20:31.531Z,6.37
2018-02-27T16:22:59.055Z,8.07
2018-02-27T16:25:26.584Z,8.23
2018-02-27T16:27:54.110Z,8.47
2018-02-27T16:30:21.675Z,8.10
2018-02-27T16:32:49.204Z,7.90
2018-02-27T16:35:16.755Z,7.77
2018-02-27T16:37:44.269Z,7.83
2018-02-27T16:40:11.808Z,8.60
2018-02-27T16:42:39.348Z,9.27
2018-02-27T16:45:06.886Z,8.33
2018-02-27T16:47:34.413Z,9.33
2018-02-27T16:50:01.950Z,8.17
2018-02-27T16:52:29.484Z,9.60
2018-02-27T16:54:57.001Z,10.50
2018-02-27T16:57:24.525Z,6.93
2018-02-27T16:59:52.051Z,11.93
2018-02-27T17:02:19.577Z,9.47
2018-02-27T17:04:47.096Z,9.30
2018-02-27T17:07:14.629Z,11.47
2018-02-27T17:09:42.147Z,12.97
2018-02-27T17:12:09.680Z,7.63
2018-02-27T17:14:37.202Z,11.27
2018-02-27T17:17:04.733Z,12.37
2018-02-27T17:19:32.277Z,11.57
2018-02-27T17:21:59.801Z,11.90
2018-02-27T17:24:27.325Z,12.50
2018-02-27T17:26:54.874Z,10.40
2018-02-27T17:29:22.409Z,13.63
2018-02-27T17:31:49.969Z,12.17
2018-02-27T17:34:17.511Z,11.83
2018-02-27T17:36:45.036Z,8.17
2018-02-27T17:39:12.561Z,13.60
2018-02-27T17:41:40.091Z,13.53
2018-02-27T17:44:07.618Z,12.40
2018-02-27T17:46:35.144Z,12.03
2018-02-27T17:49:02.668Z,8.07
2018-02-27T17:51:30.210Z,12.50
2018-02-27T17:53:57.742Z,7.77
2018-02-27T17:56:25.270Z,10.63
2018-02-27T17:58:52.802Z,6.73
2018-02-27T18:01:20.330Z,12.13
2018-02-27T18:03:47.845Z,13.60
2018-02-27T18:06:15.384Z,10.27
2018-02-27T18:08:42.911Z,13.10
2018-02-27T18:11:10.438Z,13.10
2018-02-27T18:13:37.969Z,12.83
2018-02-27T18:16:05.512Z,12.97
2018-02-27T18:18:33.050Z,12.97
2018-02-27T18:21:00.579Z,14.20
2018-02-27T18:23:28.125Z,12.03
2018-02-27T18:25:55.648Z,11.60
2018-02-27T18:28:23.199Z,11.07
2018-02-27T18:30:51.284Z,13.33
2018-02-27T18:33:18.814Z,13.17
2018-02-27T18:35:46.329Z,11.27
2018-02-27T18:38:13.882Z,7.47
2018-02-27T18:40:41.415Z,11.57
2018-02-27T18:43:08.951Z,12.87
2018-02-27T18:45:36.470Z,13.87
2018-02-27T18:48:03.998Z,14.07
2018-02-27T18:50:31.528Z,14.80
2018-02-27T18:52:59.059Z,13.47
2018-02-27T18:55:26.589Z,15.70
2018-02-27T18:57:54.138Z,14.50
2018-02-27T19:00:21.670Z,14.13
2018-02-27T19:02:49.387Z,12.47
2018-02-27T19:05:16.944Z,10.77
2018-02-27T19:07:44.474Z,13.87
2018-02-27T19:10:11.990Z,15.97
2018-02-27T19:12:39.521Z,16.93
2018-02-27T19:15:07.055Z,15.83
2018-02-27T19:17:34.587Z,14.43
2018-02-27T19:20:02.105Z,15.57
2018-02-27T19:22:29.658Z,16.37
2018-02-27T19:24:57.226Z,15.63
2018-02-27T19:27:24.755Z,14.40
2018-02-27T19:29:52.288Z,16.77
2018-02-27T19:32:19.872Z,14.73
2018-02-27T19:34:47.376Z,12.97
2018-02-27T19:37:14.963Z,15.13
2018-02-27T19:39:42.517Z,11.60
2018-02-27T19:42:10.042Z,13.30
2018-02-27T19:44:37.570Z,12.83
2018-02-27T19:47:05.096Z,5.27
2018-02-27T19:49:32.642Z,11.47
2018-02-27T19:52:00.182Z,11.33
2018-02-27T19:54:27.757Z,12.63
2018-02-27T19:56:55.288Z,12.80
2018-02-27T19:59:22.923Z,12.10
2018-02-27T20:01:50.716Z,8.90
2018-02-27T20:04:18.453Z,10.33
2018-02-27T20:06:46.009Z,11.40
2018-02-27T20:09:13.527Z,9.30
2018-02-27T20:11:41.041Z,4.80
2018-02-27T20:14:08.763Z,12.40
2018-02-27T20:16:36.510Z,14.90
2018-02-27T20:19:04.069Z,13.47
2018-02-27T20:21:31.732Z,11.23
2018-02-27T20:24:04.839Z,12.43
2018-02-27T20:26:32.377Z,12.30
2018-02-27T20:29:05.735Z,10.60
2018-02-27T20:31:33.343Z,13.70
2018-02-27T20:34:00.888Z,13.33
2018-02-27T20:36:28.427Z,10.93
2018-02-27T20:39:01.548Z,7.00
2018-02-27T20:41:29.089Z,11.03
2018-02-27T20:43:56.649Z,10.80
2018-02-27T20:46:24.175Z,13.43
2018-02-27T20:48:52.538Z,13.40
2018-02-27T20:51:20.281Z,11.50
2018-02-27T20:53:47.801Z,11.83
2018-02-27T20:56:15.414Z,11.87
2018-02-27T20:58:42.982Z,6.17
2018-02-27T21:01:10.526Z,11.50
2018-02-27T21:03:38.060Z,11.07
2018-02-27T21:06:05.599Z,5.87
2018-02-27T21:08:33.131Z,10.80
2018-02-27T21:11:00.649Z,7.13
2018-02-27T21:13:29.072Z,9.27
2018-02-27T21:15:56.636Z,9.57
2018-02-27T21:18:24.161Z,9.40
2018-02-27T21:20:51.685Z,10.03
2018-02-27T21:23:19.241Z,12.83
2018-02-27T21:25:46.769Z,13.33
2018-02-27T21:28:14.289Z,9.90
2018-02-27T21:30:41.833Z,10.53
2018-02-27T21:33:09.376Z,11.77
2018-02-27T21:35:36.936Z,8.10
2018-02-27T21:38:04.460Z,5.43
2018-02-27T21:40:31.990Z,7.03
2018-02-27T21:42:59.516Z,7.80
2018-02-27T21:45:27.056Z,10.53
2018-02-27T21:47:54.587Z,9.87
2018-02-27T21:50:22.127Z,9.50
2018-02-27T21:52:49.654Z,8.37
2018-02-27T21:55:17.196Z,11.73
2018-02-27T21:57:44.778Z,8.40
2018-02-27T22:00:12.329Z,12.10
2018-02-27T22:02:39.882Z,12.43
2018-02-27T22:05:07.430Z,11.23
2018-02-27T22:07:34.972Z,8.47
2018-02-27T22:10:02.505Z,10.00
2018-02-27T22:12:30.039Z,11.40
2018-02-27T22:14:57.581Z,7.47
2018-02-27T22:17:25.112Z,10.53
2018-02-27T22:19:52.656Z,9.87
2018-02-27T22:22:20.170Z,7.07
2018-02-27T22:24:47.717Z,10.07
2018-02-27T22:27:15.250Z,11.47
2018-02-27T22:29:42.774Z,7.20
2018-02-27T22:32:10.296Z,10.40
2018-02-27T22:34:37.826Z,11.97
2018-02-27T22:37:05.378Z,12.43
2018-02-27T22:39:32.916Z,12.13
2018-02-27T22:42:00.437Z,12.47
2018-02-27T22:44:27.965Z,13.20
2018-02-27T22:46:55.489Z,13.80
2018-02-27T22:49:23.016Z,13.35
2018-02-27T22:51:50.543Z,12.40
2018-02-27T22:54:18.070Z,14.60
2018-02-27T22:56:45.664Z,15.03
2018-02-27T22:59:13.192Z,11.70
2018-02-27T23:01:40.749Z,12.37
2018-02-27T23:04:08.287Z,14.07
2018-02-27T23:06:35.992Z,13.23
2018-02-27T23:09:03.535Z,14.37
2018-02-27T23:11:31.070Z,15.53
2018-02-27T23:13:58.613Z,11.20
2018-02-27T23:16:26.140Z,13.23
2018-02-27T23:18:53.677Z,15.07
2018-02-27T23:21:21.201Z,14.10
2018-02-27T23:23:49.316Z,14.80
2018-02-27T23:26:22.044Z,13.50
2018-02-27T23:28:50.701Z,12.97
2018-02-27T23:31:18.321Z,13.47
2018-02-27T23:33:46.436Z,14.00
2018-02-27T23:36:13.963Z,13.33
2018-02-27T23:38:41.493Z,13.93
2018-02-27T23:41:09.037Z,11.80
2018-02-27T23:43:36.573Z,15.17
2018-02-27T23:46:04.104Z,15.70
2018-02-27T23:48:31.657Z,13.67
2018-02-27T23:50:59.183Z,16.27
2018-02-27T23:53:26.722Z,15.47
2018-02-27T23:55:54.266Z,12.33
2018-02-27T23:58:21.796Z,13.03
